Time;durP1;ratioP1;P1;durP2;ratioP2;P2;SDS_P1;SDS_P2;PMS_P1;PMS_P2;Temp;Humidity;BMP_temperature;BMP_pressure;BME280_temperature;BME280_humidity;BME280_pressure;Samples;Min_cycle;Max_cycle;Signal;HPM_P1;HPM_P2
2023/08/19 00:00:51;;;;;;;;;;;21.60;76.40;;;;;;5115548;28;20014;-65
2023/08/19 00:03:17;;;;;;;;;;;21.60;76.40;;;;;;5097426;28;19923;-65
2023/08/19 00:05:43;;;;;;;;;;;21.60;76.40;;;;;;5131478;27;19920;-65
2023/08/19 00:08:08;;;;;;;;;;;21.60;76.50;;;;;;5097039;28;19920;-65
2023/08/19 00:10:34;;;;;;;;;;;21.60;76.50;;;;;;5131323;27;19968;-65
2023/08/19 00:12:59;;;;;;;;;;;21.60;76.50;;;;;;5131019;27;20294;-66
2023/08/19 00:15:25;;;;;;;;;;;21.60;76.50;;;;;;5131690;27;20016;-65
2023/08/19 00:17:50;;;;;;;;;;;21.60;76.50;;;;;;5115566;28;19969;-65
2023/08/19 00:20:16;;;;;;;;;;;21.60;76.50;;;;;;5115281;28;19919;-65
2023/08/19 00:22:42;;;;;;;;;;;21.60;76.60;;;;;;5097233;28;20044;-65
2023/08/19 00:25:08;;;;;;;;;;;21.60;76.60;;;;;;5115218;28;19948;-65
2023/08/19 00:27:33;;;;;;;;;;;21.60;76.60;;;;;;5097031;28;19920;-66
2023/08/19 00:29:59;;;;;;;;;;;21.60;76.60;;;;;;5115041;28;20049;-65
2023/08/19 00:32:24;;;;;;;;;;;21.60;76.70;;;;;;5096409;28;19927;-69
2023/08/19 00:34:49;;;;;;;;;;;21.60;76.70;;;;;;5114927;28;19923;-67
2023/08/19 00:37:15;;;;;;;;;;;21.60;76.70;;;;;;5096850;28;20290;-69
2023/08/19 00:39:40;;;;;;;;;;;21.60;76.70;;;;;;5096855;28;19920;-66
2023/08/19 00:42:06;;;;;;;;;;;21.60;76.70;;;;;;5096533;28;20018;-65
2023/08/19 00:44:34;;;;;;;;;;;21.60;76.70;;;;;;5114650;28;19934;-65
2023/08/19 00:47:01;;;;;;;;;;;21.60;76.80;;;;;;5114615;28;19927;-65
2023/08/19 00:49:27;;;;;;;;;;;21.60;76.80;;;;;;5096289;28;19926;-65
2023/08/19 00:51:53;;;;;;;;;;;21.60;76.80;;;;;;5096435;28;20184;-65
2023/08/19 00:54:18;;;;;;;;;;;21.60;76.80;;;;;;5096574;28;20629;-65
2023/08/19 00:56:44;;;;;;;;;;;21.60;76.80;;;;;;5096571;28;19982;-65
2023/08/19 00:59:09;;;;;;;;;;;21.60;76.80;;;;;;5096059;28;19928;-65
2023/08/19 01:01:35;;;;;;;;;;;21.60;76.80;;;;;;5096325;28;19924;-65
2023/08/19 01:04:01;;;;;;;;;;;21.60;76.80;;;;;;5095973;28;20409;-66
2023/08/19 01:06:47;;;;;;;;;;;21.60;76.80;;;;;;5096094;28;19920;-65
2023/08/19 01:09:21;;;;;;;;;;;21.60;76.80;;;;;;5096009;28;19920;-65
2023/08/19 01:14:34;;;;;;;;;;;21.60;76.90;;;;;;5089945;28;19913;-65
2023/08/19 01:17:01;;;;;;;;;;;21.60;76.90;;;;;;5088641;28;19943;-66
2023/08/19 01:19:30;;;;;;;;;;;21.60;76.90;;;;;;5088972;28;19966;-65
2023/08/19 01:22:00;;;;;;;;;;;21.60;76.90;;;;;;5088591;28;19920;-65
2023/08/19 01:24:27;;;;;;;;;;;21.60;77.00;;;;;;5088688;28;19965;-65
2023/08/19 01:26:52;;;;;;;;;;;21.60;77.00;;;;;;5088688;28;19925;-65
2023/08/19 01:29:18;;;;;;;;;;;21.60;77.00;;;;;;5088430;28;19924;-65
2023/08/19 01:31:43;;;;;;;;;;;21.60;77.00;;;;;;5088688;28;20260;-66
2023/08/19 01:34:09;;;;;;;;;;;21.60;77.00;;;;;;5089483;28;19925;-66
2023/08/19 01:36:38;;;;;;;;;;;21.60;77.00;;;;;;5088639;28;19921;-69
2023/08/19 01:39:07;;;;;;;;;;;21.60;77.00;;;;;;5089487;28;19920;-65
2023/08/19 01:41:33;;;;;;;;;;;21.60;77.00;;;;;;5089359;28;20177;-65
2023/08/19 01:44:00;;;;;;;;;;;21.60;77.00;;;;;;5088158;28;20363;-69
2023/08/19 01:46:25;;;;;;;;;;;21.60;77.00;;;;;;5088319;28;19920;-65
2023/08/19 01:48:51;;;;;;;;;;;21.60;77.10;;;;;;5088070;28;20311;-65
2023/08/19 01:51:16;;;;;;;;;;;21.60;77.10;;;;;;5088345;28;20147;-65
2023/08/19 01:53:42;;;;;;;;;;;21.60;77.10;;;;;;5087953;28;20424;-65
2023/08/19 01:56:07;;;;;;;;;;;21.60;77.10;;;;;;5088062;28;19929;-65
2023/08/19 01:58:33;;;;;;;;;;;21.60;77.10;;;;;;5088206;28;19936;-65
2023/08/19 02:00:58;;;;;;;;;;;21.60;77.10;;;;;;5086995;28;19959;-65
2023/08/19 02:03:24;;;;;;;;;;;21.60;77.10;;;;;;5089086;28;19966;-65
2023/08/19 02:05:49;;;;;;;;;;;21.60;77.20;;;;;;5087884;28;19974;-66
2023/08/19 02:08:15;;;;;;;;;;;21.60;77.20;;;;;;5087647;28;19943;-69
2023/08/19 02:10:42;;;;;;;;;;;21.60;77.20;;;;;;5087856;28;19921;-65
2023/08/19 02:13:08;;;;;;;;;;;21.60;77.30;;;;;;5087281;28;19928;-65
2023/08/19 02:15:33;;;;;;;;;;;21.60;77.20;;;;;;5087444;28;19921;-65
2023/08/19 02:17:59;;;;;;;;;;;21.60;77.20;;;;;;5087695;28;19920;-65
2023/08/19 02:20:24;;;;;;;;;;;21.60;77.30;;;;;;5087464;28;20508;-65
2023/08/19 02:22:50;;;;;;;;;;;21.60;77.30;;;;;;5087581;28;19973;-65
2023/08/19 02:25:15;;;;;;;;;;;21.60;77.30;;;;;;5076559;28;19927;-65
2023/08/19 02:27:42;;;;;;;;;;;21.60;77.30;;;;;;5073688;28;19932;-69
2023/08/19 02:30:09;;;;;;;;;;;21.60;77.30;;;;;;5074043;28;20015;-65
2023/08/19 02:32:35;;;;;;;;;;;21.60;77.30;;;;;;5073633;28;19924;-65
2023/08/19 02:35:01;;;;;;;;;;;21.60;77.30;;;;;;5075033;28;19927;-65
2023/08/19 02:37:26;;;;;;;;;;;21.60;77.30;;;;;;5074912;28;19927;-65
2023/08/19 02:39:52;;;;;;;;;;;21.60;77.30;;;;;;5073878;28;19966;-65
2023/08/19 02:42:17;;;;;;;;;;;21.60;77.40;;;;;;5073369;28;19924;-65
2023/08/19 02:44:43;;;;;;;;;;;21.60;77.30;;;;;;5090702;28;19924;-65
2023/08/19 02:47:09;;;;;;;;;;;21.60;77.40;;;;;;5073745;28;20428;-65
2023/08/19 02:49:36;;;;;;;;;;;21.60;77.40;;;;;;5073345;28;19928;-65
2023/08/19 02:52:02;;;;;;;;;;;21.60;77.40;;;;;;5073661;28;19920;-65
2023/08/19 02:54:27;;;;;;;;;;;21.60;77.40;;;;;;5074640;28;20345;-65
2023/08/19 02:56:53;;;;;;;;;;;21.60;77.40;;;;;;5074443;28;19920;-65
2023/08/19 02:59:18;;;;;;;;;;;21.60;77.40;;;;;;5074731;28;19974;-65
2023/08/19 03:01:44;;;;;;;;;;;21.60;77.40;;;;;;5074396;28;19966;-65
2023/08/19 03:04:09;;;;;;;;;;;21.60;77.40;;;;;;5073346;28;19921;-69
2023/08/19 03:06:35;;;;;;;;;;;21.60;77.50;;;;;;5072678;28;20375;-69
2023/08/19 03:09:00;;;;;;;;;;;21.60;77.50;;;;;;5073307;28;19927;-65
2023/08/19 03:11:26;;;;;;;;;;;21.60;77.50;;;;;;5073028;28;19925;-65
2023/08/19 03:13:51;;;;;;;;;;;21.60;77.50;;;;;;5072585;28;19931;-65
2023/08/19 03:16:17;;;;;;;;;;;21.60;77.50;;;;;;5072895;28;19927;-69
2023/08/19 03:18:42;;;;;;;;;;;21.60;77.50;;;;;;5073069;28;19920;-69
2023/08/19 03:21:08;;;;;;;;;;;21.60;77.50;;;;;;5073283;28;19925;-65
2023/08/19 03:23:33;;;;;;;;;;;21.60;77.60;;;;;;5074051;28;20284;-65
2023/08/19 03:25:59;;;;;;;;;;;21.60;77.60;;;;;;5072749;28;19921;-65
2023/08/19 03:28:25;;;;;;;;;;;21.60;77.60;;;;;;5072833;28;20101;-65
2023/08/19 03:30:50;;;;;;;;;;;21.60;77.60;;;;;;5073946;28;20208;-66
2023/08/19 03:33:16;;;;;;;;;;;21.60;77.60;;;;;;5072484;28;20442;-65
2023/08/19 03:35:42;;;;;;;;;;;21.60;77.60;;;;;;5073199;28;19920;-65
2023/08/19 03:38:07;;;;;;;;;;;21.60;77.60;;;;;;5073544;28;19921;-65
2023/08/19 03:40:33;;;;;;;;;;;21.60;77.60;;;;;;5072399;28;20319;-69
2023/08/19 03:42:58;;;;;;;;;;;21.50;77.60;;;;;;5073589;28;19967;-65
2023/08/19 03:45:23;;;;;;;;;;;21.60;77.70;;;;;;5072855;28;19972;-69
2023/08/19 03:47:49;;;;;;;;;;;21.50;77.60;;;;;;5072625;28;20006;-65
2023/08/19 03:50:14;;;;;;;;;;;21.60;77.70;;;;;;5072182;28;19927;-65
2023/08/19 03:52:40;;;;;;;;;;;21.60;77.70;;;;;;5072061;28;19925;-65
2023/08/19 03:55:06;;;;;;;;;;;21.60;77.70;;;;;;5072335;28;19920;-65
2023/08/19 03:57:31;;;;;;;;;;;21.60;77.70;;;;;;5072378;28;20023;-65
2023/08/19 03:59:57;;;;;;;;;;;21.60;77.80;;;;;;5071920;28;20007;-65
2023/08/19 04:02:22;;;;;;;;;;;21.60;77.80;;;;;;5071926;28;19927;-65
2023/08/19 04:04:56;;;;;;;;;;;21.60;77.80;;;;;;5073328;28;19924;-65
2023/08/19 04:07:21;;;;;;;;;;;21.60;77.80;;;;;;5072153;28;19920;-65
2023/08/19 04:09:47;;;;;;;;;;;21.60;77.90;;;;;;5071765;28;20319;-65
2023/08/19 04:12:12;;;;;;;;;;;21.50;77.70;;;;;;5073018;28;20011;-65
2023/08/19 04:14:38;;;;;;;;;;;21.50;77.70;;;;;;5075195;28;19935;-65
2023/08/19 04:17:03;;;;;;;;;;;21.60;77.80;;;;;;5075342;28;19927;-65
2023/08/19 04:19:30;;;;;;;;;;;21.60;77.90;;;;;;5074936;28;20441;-69
2023/08/19 04:21:56;;;;;;;;;;;21.60;77.80;;;;;;5075339;28;19926;-65
2023/08/19 04:24:21;;;;;;;;;;;21.50;77.80;;;;;;5075108;28;19920;-65
2023/08/19 04:26:47;;;;;;;;;;;21.60;77.90;;;;;;5074771;28;19973;-65
2023/08/19 04:29:12;;;;;;;;;;;21.60;77.80;;;;;;5075003;28;19943;-65
2023/08/19 04:31:37;;;;;;;;;;;21.50;77.80;;;;;;5074721;28;19924;-65
2023/08/19 04:34:04;;;;;;;;;;;21.60;77.90;;;;;;5074757;28;19920;-65
2023/08/19 04:36:29;;;;;;;;;;;21.50;77.80;;;;;;5092771;28;19963;-65
2023/08/19 04:38:56;;;;;;;;;;;21.60;77.90;;;;;;5092867;28;19990;-65
2023/08/19 04:41:21;;;;;;;;;;;21.50;77.80;;;;;;5092799;28;19927;-65
2023/08/19 04:43:47;;;;;;;;;;;21.60;77.90;;;;;;5074937;28;20282;-65
2023/08/19 04:46:13;;;;;;;;;;;21.50;77.80;;;;;;5074570;28;20444;-65
2023/08/19 04:48:38;;;;;;;;;;;21.50;77.80;;;;;;5074360;28;19924;-65
2023/08/19 04:51:04;;;;;;;;;;;21.50;77.80;;;;;;5092795;28;19943;-66
2023/08/19 04:53:30;;;;;;;;;;;21.50;77.90;;;;;;5092710;28;19920;-65
2023/08/19 04:55:58;;;;;;;;;;;21.60;78.00;;;;;;5074799;28;20367;-65
2023/08/19 04:58:23;;;;;;;;;;;21.60;78.00;;;;;;5092527;28;20383;-65
2023/08/19 05:00:49;;;;;;;;;;;21.50;77.90;;;;;;5092460;28;19927;-65
2023/08/19 05:03:15;;;;;;;;;;;21.50;77.90;;;;;;5092465;28;19981;-70
2023/08/19 05:05:40;;;;;;;;;;;21.50;78.00;;;;;;5091280;28;20398;-69
2023/08/19 05:08:06;;;;;;;;;;;21.50;77.90;;;;;;5091161;28;19920;-65
2023/08/19 05:10:31;;;;;;;;;;;21.50;77.90;;;;;;5074675;28;19920;-65
2023/08/19 05:12:58;;;;;;;;;;;21.60;78.00;;;;;;5092335;28;19924;-69
2023/08/19 05:15:23;;;;;;;;;;;21.50;78.00;;;;;;5092363;28;19920;-65
2023/08/19 05:17:49;;;;;;;;;;;21.60;78.00;;;;;;5074230;28;20329;-65
2023/08/19 05:20:14;;;;;;;;;;;21.60;78.00;;;;;;5091101;28;19980;-65
2023/08/19 05:22:39;;;;;;;;;;;21.50;77.90;;;;;;5074516;28;19920;-65
2023/08/19 05:25:05;;;;;;;;;;;21.50;77.90;;;;;;5074331;28;19927;-66
2023/08/19 05:27:31;;;;;;;;;;;21.50;77.90;;;;;;5091272;28;19946;-65
2023/08/19 05:29:56;;;;;;;;;;;21.60;78.00;;;;;;5074249;28;19999;-65
2023/08/19 05:32:25;;;;;;;;;;;21.60;78.00;;;;;;5091970;28;19921;-65
2023/08/19 05:34:51;;;;;;;;;;;21.50;78.00;;;;;;5091308;28;19920;-65
2023/08/19 05:37:16;;;;;;;;;;;21.50;77.90;;;;;;5074302;28;19921;-65
2023/08/19 05:39:42;;;;;;;;;;;21.50;77.90;;;;;;5091247;28;19920;-70
2023/08/19 05:42:07;;;;;;;;;;;21.50;78.00;;;;;;5092102;28;20397;-65
2023/08/19 05:44:32;;;;;;;;;;;21.50;78.00;;;;;;5090879;28;19920;-65
2023/08/19 05:46:58;;;;;;;;;;;21.60;78.00;;;;;;5074238;28;19951;-66
2023/08/19 05:49:23;;;;;;;;;;;21.60;78.00;;;;;;5092247;28;19920;-65
2023/08/19 05:51:49;;;;;;;;;;;21.50;78.00;;;;;;5074303;28;19929;-65
2023/08/19 05:54:14;;;;;;;;;;;21.50;78.00;;;;;;5092041;28;20405;-65
2023/08/19 05:56:40;;;;;;;;;;;21.50;78.00;;;;;;5092123;28;19920;-65
2023/08/19 05:59:05;;;;;;;;;;;21.50;78.00;;;;;;5074738;28;19983;-65
2023/08/19 06:01:31;;;;;;;;;;;21.50;78.00;;;;;;5094559;28;19927;-65
2023/08/19 06:03:56;;;;;;;;;;;21.50;78.00;;;;;;5077517;28;19927;-65
2023/08/19 06:06:22;;;;;;;;;;;21.60;78.10;;;;;;5077632;28;20286;-65
2023/08/19 06:08:47;;;;;;;;;;;21.50;78.10;;;;;;5077474;28;20112;-65
2023/08/19 06:11:13;;;;;;;;;;;21.60;78.20;;;;;;5077798;28;19943;-66
2023/08/19 06:13:38;;;;;;;;;;;21.50;78.10;;;;;;5077096;28;19983;-65
2023/08/19 06:16:04;;;;;;;;;;;21.50;78.10;;;;;;5077696;28;19969;-65
2023/08/19 06:18:30;;;;;;;;;;;21.50;78.10;;;;;;5077203;28;19920;-66
2023/08/19 06:20:56;;;;;;;;;;;21.50;78.10;;;;;;5095775;28;19920;-65
2023/08/19 06:23:22;;;;;;;;;;;21.60;78.20;;;;;;5095572;28;20283;-65
2023/08/19 06:25:49;;;;;;;;;;;21.50;78.10;;;;;;5077525;28;20101;-65
2023/08/19 06:28:15;;;;;;;;;;;21.60;78.20;;;;;;5095334;28;19926;-65
2023/08/19 06:30:41;;;;;;;;;;;21.50;78.10;;;;;;5077391;28;19920;-69
2023/08/19 06:33:06;;;;;;;;;;;21.50;78.20;;;;;;5077281;28;20413;-65
2023/08/19 06:35:32;;;;;;;;;;;21.50;78.20;;;;;;5095180;28;19927;-65
2023/08/19 06:37:59;;;;;;;;;;;21.60;78.30;;;;;;5077609;28;19927;-66
2023/08/19 06:40:26;;;;;;;;;;;21.50;78.20;;;;;;5095209;28;19928;-69
2023/08/19 06:42:52;;;;;;;;;;;21.50;78.30;;;;;;5077351;28;19975;-65
2023/08/19 06:45:17;;;;;;;;;;;21.50;78.30;;;;;;5076848;28;19928;-65
2023/08/19 06:47:47;;;;;;;;;;;21.50;78.30;;;;;;5095049;28;19920;-65
2023/08/19 06:50:13;;;;;;;;;;;21.50;78.40;;;;;;5076647;28;19924;-65
2023/08/19 06:52:39;;;;;;;;;;;21.50;78.50;;;;;;5094775;28;20413;-65
2023/08/19 06:55:05;;;;;;;;;;;21.60;78.80;;;;;;5076883;28;19956;-65
2023/08/19 06:57:35;;;;;;;;;;;21.50;78.90;;;;;;5094844;28;19927;-65
2023/08/19 07:00:09;;;;;;;;;;;21.50;79.00;;;;;;5076774;28;20363;-65
2023/08/19 07:02:35;;;;;;;;;;;21.60;79.10;;;;;;5076758;28;20331;-65
2023/08/19 07:05:01;;;;;;;;;;;21.60;79.10;;;;;;5076716;28;19920;-65
2023/08/19 07:07:27;;;;;;;;;;;21.50;79.10;;;;;;5093690;28;20000;-69
2023/08/19 07:09:53;;;;;;;;;;;21.60;79.30;;;;;;5093216;28;19927;-65
2023/08/19 07:12:19;;;;;;;;;;;21.60;79.30;;;;;;5076131;28;19928;-65
2023/08/19 07:14:44;;;;;;;;;;;21.60;79.30;;;;;;5076536;28;19924;-65
2023/08/19 07:17:11;;;;;;;;;;;21.50;79.30;;;;;;5094775;28;19927;-65
2023/08/19 07:19:38;;;;;;;;;;;21.60;79.40;;;;;;5094375;28;19931;-65
2023/08/19 07:22:04;;;;;;;;;;;21.50;79.30;;;;;;5094393;28;19950;-65
2023/08/19 07:24:30;;;;;;;;;;;21.50;79.40;;;;;;5094244;28;19920;-65
2023/08/19 07:26:57;;;;;;;;;;;21.50;79.50;;;;;;5094235;28;20383;-65
2023/08/19 07:29:23;;;;;;;;;;;21.50;79.50;;;;;;5076042;28;19969;-65
2023/08/19 07:31:48;;;;;;;;;;;21.60;79.60;;;;;;5075909;28;20298;-65
2023/08/19 07:34:14;;;;;;;;;;;21.50;79.40;;;;;;5075806;28;19920;-65
2023/08/19 07:36:39;;;;;;;;;;;21.60;79.50;;;;;;5075835;28;20011;-65
2023/08/19 07:39:05;;;;;;;;;;;21.50;79.50;;;;;;5075810;28;19973;-65
2023/08/19 07:41:30;;;;;;;;;;;21.60;79.60;;;;;;5092870;28;19969;-66
2023/08/19 07:43:56;;;;;;;;;;;21.60;79.70;;;;;;5092551;28;20430;-65
2023/08/19 07:46:21;;;;;;;;;;;21.60;79.70;;;;;;5093764;28;19927;-65
2023/08/19 07:48:47;;;;;;;;;;;21.60;80.50;;;;;;5075531;28;19920;-65
2023/08/19 07:51:12;;;;;;;;;;;21.50;79.70;;;;;;5075475;28;19920;-65
2023/08/19 07:53:38;;;;;;;;;;;21.50;79.80;;;;;;5093554;28;19924;-65
2023/08/19 07:56:04;;;;;;;;;;;21.50;79.80;;;;;;5075775;28;19931;-65
2023/08/19 07:58:30;;;;;;;;;;;21.50;79.80;;;;;;5093471;28;20375;-65
2023/08/19 08:00:55;;;;;;;;;;;21.50;79.80;;;;;;5074871;28;19927;-65
2023/08/19 08:03:21;;;;;;;;;;;21.60;79.90;;;;;;5093234;28;20032;-69
2023/08/19 08:05:46;;;;;;;;;;;21.60;80.00;;;;;;5093422;28;20519;-65
2023/08/19 08:08:12;;;;;;;;;;;21.60;80.00;;;;;;5075455;28;20444;-65
2023/08/19 08:10:37;;;;;;;;;;;21.60;80.00;;;;;;5075553;28;19924;-65
2023/08/19 08:13:03;;;;;;;;;;;21.60;80.00;;;;;;5093093;28;20282;-65
2023/08/19 08:15:29;;;;;;;;;;;21.60;80.00;;;;;;5075125;28;20375;-65
2023/08/19 08:17:54;;;;;;;;;;;21.50;80.00;;;;;;5093248;28;19920;-68
2023/08/19 08:20:20;;;;;;;;;;;21.60;80.10;;;;;;5058815;28;19946;-65
2023/08/19 08:22:45;;;;;;;;;;;21.60;80.10;;;;;;5092607;28;19920;-65
2023/08/19 08:25:11;;;;;;;;;;;21.60;80.00;;;;;;5074961;28;20007;-65
2023/08/19 08:27:36;;;;;;;;;;;21.60;80.00;;;;;;5074679;28;19969;-65
2023/08/19 08:30:02;;;;;;;;;;;21.60;80.10;;;;;;5075132;28;20299;-65
2023/08/19 08:32:28;;;;;;;;;;;21.60;80.00;;;;;;5074720;28;19923;-65
2023/08/19 08:34:53;;;;;;;;;;;21.60;80.00;;;;;;5092884;28;19924;-65
2023/08/19 08:37:19;;;;;;;;;;;21.60;80.00;;;;;;5074792;28;19983;-65
2023/08/19 08:39:45;;;;;;;;;;;21.60;80.00;;;;;;5093011;28;19970;-65
2023/08/19 08:42:10;;;;;;;;;;;21.60;79.90;;;;;;5074768;28;19920;-69
2023/08/19 08:44:37;;;;;;;;;;;21.60;80.00;;;;;;5092734;28;19973;-65
2023/08/19 08:47:03;;;;;;;;;;;21.60;80.00;;;;;;5074941;28;20029;-65
2023/08/19 08:49:28;;;;;;;;;;;21.60;80.00;;;;;;5091469;28;20482;-65
2023/08/19 08:51:55;;;;;;;;;;;21.60;79.90;;;;;;5092627;28;19919;-65
2023/08/19 08:54:21;;;;;;;;;;;21.60;79.90;;;;;;5092581;28;19924;-65
2023/08/19 08:56:47;;;;;;;;;;;21.60;79.90;;;;;;5074528;28;20458;-65
2023/08/19 08:59:13;;;;;;;;;;;21.60;80.00;;;;;;5074385;28;20011;-65
2023/08/19 09:01:39;;;;;;;;;;;21.60;79.90;;;;;;5074668;28;19947;-65
2023/08/19 09:04:08;;;;;;;;;;;21.60;79.90;;;;;;5074390;28;19920;-69
2023/08/19 09:06:36;;;;;;;;;;;21.60;79.80;;;;;;5074756;28;19978;-68
2023/08/19 09:09:03;;;;;;;;;;;21.60;79.90;;;;;;5074296;28;19951;-65
2023/08/19 09:11:29;;;;;;;;;;;21.60;79.80;;;;;;5092628;28;20037;-66
2023/08/19 09:13:56;;;;;;;;;;;21.60;79.90;;;;;;5092204;28;20388;-65
2023/08/19 09:16:22;;;;;;;;;;;21.60;79.80;;;;;;5074196;28;20442;-65
2023/08/19 09:18:47;;;;;;;;;;;21.60;79.90;;;;;;5074599;28;20012;-65
2023/08/19 09:21:13;;;;;;;;;;;21.60;80.00;;;;;;5074156;28;19923;-68
2023/08/19 09:23:39;;;;;;;;;;;21.60;79.80;;;;;;5092717;28;19924;-64
2023/08/19 09:26:04;;;;;;;;;;;21.70;79.90;;;;;;5092417;28;19935;-65
2023/08/19 09:28:33;;;;;;;;;;;21.60;79.80;;;;;;5074605;28;19920;-65
2023/08/19 09:30:59;;;;;;;;;;;21.60;79.80;;;;;;5074322;28;19924;-66
2023/08/19 09:33:24;;;;;;;;;;;21.70;79.80;;;;;;5092206;28;19947;-69
2023/08/19 09:35:57;;;;;;;;;;;21.60;79.80;;;;;;5095542;28;19920;-65
2023/08/19 09:38:23;;;;;;;;;;;21.70;80.00;;;;;;5078692;28;19920;-65
2023/08/19 09:40:57;;;;;;;;;;;21.60;79.90;;;;;;5078370;28;20386;-65
2023/08/19 09:43:23;;;;;;;;;;;21.70;80.00;;;;;;5078061;28;19927;-65
2023/08/19 09:45:48;;;;;;;;;;;21.70;80.00;;;;;;5078359;28;19924;-65
2023/08/19 09:48:14;;;;;;;;;;;21.70;80.00;;;;;;5078013;28;19955;-65
2023/08/19 09:50:44;;;;;;;;;;;21.70;79.90;;;;;;5095998;28;19920;-65
2023/08/19 09:53:14;;;;;;;;;;;21.70;79.90;;;;;;5077963;28;19950;-66
2023/08/19 09:55:43;;;;;;;;;;;21.70;79.80;;;;;;5078061;28;19920;-65
2023/08/19 09:58:09;;;;;;;;;;;21.60;79.80;;;;;;5078054;28;19969;-66
2023/08/19 10:00:34;;;;;;;;;;;21.70;79.90;;;;;;5077986;28;19920;-66
2023/08/19 10:03:00;;;;;;;;;;;21.70;79.90;;;;;;5077587;28;19970;-65
2023/08/19 10:05:26;;;;;;;;;;;21.70;79.90;;;;;;5095778;28;19971;-65
2023/08/19 10:07:57;;;;;;;;;;;21.70;79.90;;;;;;5077559;28;19924;-65
2023/08/19 10:10:24;;;;;;;;;;;21.70;79.90;;;;;;5077930;28;19926;-66
2023/08/19 10:12:52;;;;;;;;;;;21.70;79.90;;;;;;5077435;28;19924;-65
2023/08/19 10:15:17;;;;;;;;;;;21.70;79.90;;;;;;5095636;28;19920;-68
2023/08/19 10:17:46;;;;;;;;;;;21.70;79.80;;;;;;5077718;28;19926;-66
2023/08/19 10:20:13;;;;;;;;;;;21.70;79.80;;;;;;5077402;28;20164;-65
2023/08/19 10:22:41;;;;;;;;;;;21.70;79.90;;;;;;5095598;28;19970;-65
2023/08/19 10:25:07;;;;;;;;;;;21.70;79.80;;;;;;5095599;28;19927;-66
2023/08/19 10:27:33;;;;;;;;;;;21.70;79.80;;;;;;5077273;28;19920;-65
2023/08/19 10:29:58;;;;;;;;;;;21.70;79.70;;;;;;5077498;28;19923;-65
2023/08/19 10:32:25;;;;;;;;;;;21.70;79.70;;;;;;5094144;28;19920;-65
2023/08/19 10:34:50;;;;;;;;;;;21.70;79.70;;;;;;5077060;28;19991;-65
2023/08/19 10:37:16;;;;;;;;;;;21.70;79.60;;;;;;5077353;28;20129;-65
2023/08/19 10:39:45;;;;;;;;;;;21.70;79.70;;;;;;5077002;28;20314;-65
2023/08/19 10:42:13;;;;;;;;;;;21.70;79.70;;;;;;5095214;28;19920;-65
2023/08/19 10:44:38;;;;;;;;;;;21.80;79.80;;;;;;5094893;28;19993;-65
2023/08/19 10:47:15;;;;;;;;;;;21.70;79.60;;;;;;5059943;28;20363;-69
2023/08/19 10:49:40;;;;;;;;;;;21.70;79.60;;;;;;5077178;28;19920;-65
2023/08/19 10:52:06;;;;;;;;;;;21.70;79.60;;;;;;5093694;28;20014;-65
2023/08/19 10:54:35;;;;;;;;;;;21.70;79.60;;;;;;5095175;28;19924;-65
2023/08/19 10:57:09;;;;;;;;;;;21.70;79.60;;;;;;5094835;28;19927;-67
2023/08/19 10:59:35;;;;;;;;;;;21.80;79.70;;;;;;5093455;28;19945;-68
2023/08/19 11:02:01;;;;;;;;;;;21.70;79.60;;;;;;5093371;28;19920;-65
2023/08/19 11:04:26;;;;;;;;;;;21.70;79.60;;;;;;5094632;28;19942;-65
2023/08/19 11:06:52;;;;;;;;;;;21.80;79.70;;;;;;5076833;28;19927;-65
2023/08/19 11:09:18;;;;;;;;;;;21.80;79.80;;;;;;5076485;28;19932;-65
2023/08/19 11:11:44;;;;;;;;;;;21.70;79.70;;;;;;5094613;28;19920;-65
2023/08/19 11:14:15;;;;;;;;;;;21.80;79.80;;;;;;5094177;28;19981;-65
2023/08/19 11:16:47;;;;;;;;;;;21.70;79.80;;;;;;5076224;28;19927;-65
2023/08/19 11:19:16;;;;;;;;;;;21.80;79.80;;;;;;5094601;28;19920;-65
2023/08/19 11:21:42;;;;;;;;;;;21.80;79.80;;;;;;5076260;28;20294;-65
2023/08/19 11:24:08;;;;;;;;;;;21.80;79.80;;;;;;5094361;28;19924;-65
2023/08/19 11:26:35;;;;;;;;;;;21.80;79.70;;;;;;5093284;28;19927;-65
2023/08/19 11:29:03;;;;;;;;;;;21.80;79.70;;;;;;5076067;28;19920;-65
2023/08/19 11:31:28;;;;;;;;;;;21.80;79.70;;;;;;5094089;28;20271;-65
2023/08/19 11:33:54;;;;;;;;;;;21.80;79.70;;;;;;5075882;28;19924;-66
2023/08/19 11:36:23;;;;;;;;;;;21.80;79.70;;;;;;5076058;28;19946;-65
2023/08/19 11:38:53;;;;;;;;;;;21.80;79.60;;;;;;5094170;28;20007;-65
2023/08/19 11:41:18;;;;;;;;;;;21.80;79.70;;;;;;5076095;28;19931;-65
2023/08/19 11:43:44;;;;;;;;;;;21.80;79.70;;;;;;5075813;28;19930;-66
2023/08/19 11:46:11;;;;;;;;;;;21.90;79.80;;;;;;5093758;28;20363;-65
2023/08/19 11:48:37;;;;;;;;;;;21.80;79.80;;;;;;5075996;28;20286;-69
2023/08/19 11:51:08;;;;;;;;;;;21.90;79.90;;;;;;5075858;28;20015;-65
2023/08/19 11:53:33;;;;;;;;;;;21.80;79.80;;;;;;5075501;28;20444;-65
2023/08/19 11:55:59;;;;;;;;;;;21.80;79.80;;;;;;5075472;28;19920;-65
2023/08/19 11:58:35;;;;;;;;;;;21.90;79.80;;;;;;5074956;28;19973;-65
2023/08/19 12:01:01;;;;;;;;;;;21.90;79.80;;;;;;5074893;28;19920;-65
2023/08/19 12:03:28;;;;;;;;;;;21.90;79.80;;;;;;5093587;28;19927;-65
2023/08/19 12:05:53;;;;;;;;;;;21.80;79.80;;;;;;5075267;28;19920;-65
2023/08/19 12:08:34;;;;;;;;;;;21.90;79.80;;;;;;5075249;28;19928;-65
2023/08/19 12:10:59;;;;;;;;;;;21.80;79.80;;;;;;5092379;28;19920;-65
2023/08/19 12:13:27;;;;;;;;;;;21.80;79.80;;;;;;5074837;28;20279;-65
2023/08/19 12:15:53;;;;;;;;;;;21.80;79.80;;;;;;5075359;28;19927;-65
2023/08/19 12:18:19;;;;;;;;;;;21.90;79.90;;;;;;5093434;28;19924;-65
2023/08/19 12:20:45;;;;;;;;;;;21.90;79.90;;;;;;5074976;28;19920;-65
2023/08/19 12:23:11;;;;;;;;;;;21.90;79.90;;;;;;5092349;28;20333;-68
2023/08/19 12:25:52;;;;;;;;;;;21.90;79.90;;;;;;5075282;28;19924;-65
2023/08/19 12:28:18;;;;;;;;;;;21.90;79.90;;;;;;5092153;28;20339;-68
2023/08/19 12:30:44;;;;;;;;;;;21.90;79.90;;;;;;5075113;28;19920;-65
2023/08/19 12:33:09;;;;;;;;;;;21.90;80.00;;;;;;5074998;28;19924;-65
2023/08/19 12:35:35;;;;;;;;;;;21.90;80.80;;;;;;5093129;28;19920;-65
2023/08/19 12:38:01;;;;;;;;;;;21.90;80.00;;;;;;5092833;28;19946;-65
2023/08/19 12:40:26;;;;;;;;;;;21.90;80.00;;;;;;5091943;28;19970;-66
2023/08/19 12:42:53;;;;;;;;;;;21.90;79.90;;;;;;5074871;28;19962;-65
2023/08/19 12:45:18;;;;;;;;;;;21.90;80.00;;;;;;5091566;28;20351;-66
2023/08/19 12:47:45;;;;;;;;;;;21.90;79.90;;;;;;5092973;28;20010;-65
2023/08/19 12:50:11;;;;;;;;;;;22.00;80.10;;;;;;5074894;28;19920;-65
2023/08/19 12:52:36;;;;;;;;;;;21.90;80.10;;;;;;5092643;28;20011;-65
2023/08/19 12:55:03;;;;;;;;;;;22.00;80.10;;;;;;5091366;28;20020;-65
2023/08/19 12:57:29;;;;;;;;;;;21.90;80.00;;;;;;5074990;28;20014;-65
2023/08/19 12:59:55;;;;;;;;;;;22.00;80.10;;;;;;5091696;28;20007;-65
2023/08/19 13:02:20;;;;;;;;;;;21.90;80.00;;;;;;5092594;28;19928;-65
2023/08/19 13:04:46;;;;;;;;;;;21.90;79.90;;;;;;5092628;28;19920;-66
2023/08/19 13:07:11;;;;;;;;;;;21.90;80.00;;;;;;5074404;28;19951;-65
2023/08/19 13:09:38;;;;;;;;;;;21.90;80.00;;;;;;5074571;28;19943;-65
2023/08/19 13:12:03;;;;;;;;;;;22.00;80.00;;;;;;5092707;28;19927;-66
2023/08/19 13:14:29;;;;;;;;;;;22.00;80.00;;;;;;5074290;28;19928;-65
2023/08/19 13:16:54;;;;;;;;;;;22.00;80.10;;;;;;5092612;28;20404;-65
2023/08/19 13:19:20;;;;;;;;;;;22.00;80.00;;;;;;5092355;28;20291;-66
2023/08/19 13:21:45;;;;;;;;;;;22.00;80.00;;;;;;5092574;28;19920;-65
2023/08/19 13:24:11;;;;;;;;;;;22.00;80.00;;;;;;5074270;28;20374;-66
2023/08/19 13:26:36;;;;;;;;;;;22.00;79.90;;;;;;5074228;28;19920;-65
2023/08/19 13:29:03;;;;;;;;;;;22.00;80.00;;;;;;5091091;28;19920;-65
2023/08/19 13:31:28;;;;;;;;;;;22.00;79.90;;;;;;5074219;28;19963;-65
2023/08/19 13:33:54;;;;;;;;;;;22.00;80.00;;;;;;5074171;28;20370;-65
2023/08/19 13:36:19;;;;;;;;;;;22.00;80.00;;;;;;5092404;28;19920;-65
2023/08/19 13:38:45;;;;;;;;;;;22.00;80.00;;;;;;5092299;28;19981;-65
2023/08/19 13:41:11;;;;;;;;;;;22.00;80.00;;;;;;5074467;28;19924;-65
2023/08/19 13:43:39;;;;;;;;;;;22.00;80.00;;;;;;5092100;28;20031;-68
2023/08/19 13:46:04;;;;;;;;;;;22.00;79.90;;;;;;5074463;28;19951;-68
2023/08/19 13:48:30;;;;;;;;;;;22.00;79.90;;;;;;5092110;28;19975;-65
2023/08/19 13:50:56;;;;;;;;;;;22.00;79.90;;;;;;5074135;28;19920;-69
2023/08/19 13:53:21;;;;;;;;;;;22.00;79.90;;;;;;5073873;28;19924;-65
2023/08/19 13:55:46;;;;;;;;;;;22.00;80.00;;;;;;5074219;28;20037;-66
2023/08/19 13:58:12;;;;;;;;;;;22.00;80.00;;;;;;5073964;28;20375;-65
2023/08/19 14:00:38;;;;;;;;;;;22.00;79.80;;;;;;5074198;28;20026;-65
2023/08/19 14:03:03;;;;;;;;;;;22.10;80.00;;;;;;5073858;28;20363;-65
2023/08/19 14:05:29;;;;;;;;;;;22.10;79.90;;;;;;5074138;28;19981;-65
2023/08/19 14:07:54;;;;;;;;;;;22.00;79.80;;;;;;5091030;28;19943;-65
2023/08/19 14:10:21;;;;;;;;;;;22.00;79.80;;;;;;5092367;28;19920;-65
2023/08/19 14:12:47;;;;;;;;;;;22.10;79.80;;;;;;5073493;28;19970;-65